03FL weather

Ranger Heliport
West Palm Beach, Florida, United States

Public forecast

Using degrees Fahrenheit for public forecast. Weather courtesy of forecast.io.

METAR (pilot weather report)

Closest report is Palm Beach International Airport, 4.9 nm (9.1 km) E. Retrieved 2019/06/26 00:53 UTC (9 minutes ago):

KPBI 260053Z 10007KT 10SM FEW017 30/26 A3005 RMK AO2 SLP174 T03000261 $

TAF (pilot weather forecast)

Forecast is more than 12 hours old.

Closest forecast is Palm Beach International Airport, 4.9 nm (9.1 km) E. Retrieved 2019/06/25 00:44 UTC (1 day ago):

TAF KPBI 252336Z 2600/2624 VRB03KT P6SM FEW035 SCT250 FM261400 27005KT P6SM FEW035 SCT060 FM261700 07010KT P6SM VCTS SCT035CB BKN060